Time;durP1;ratioP1;P1;durP2;ratioP2;P2;SDS_P1;SDS_P2;PMS_P1;PMS_P2;Temp;Humidity;BMP_temperature;BMP_pressure;BME280_temperature;BME280_humidity;BME280_pressure;Samples;Min_cycle;Max_cycle;Signal;HPM_P1;HPM_P2
2023/11/25 00:01:58;;;;;;;7.90;1.97;;;1.40;99.90;;;;;;4241511;27;20503;-79
2023/11/25 00:04:00;;;;;;;6.37;2.20;;;1.20;99.90;;;;;;4242552;27;20589;-77
2023/11/25 00:06:02;;;;;;;5.90;2.07;;;1.20;99.90;;;;;;4244011;27;20469;-77
2023/11/25 00:08:04;;;;;;;5.37;2.10;;;1.20;99.90;;;;;;4241008;27;20477;-77
2023/11/25 00:10:07;;;;;;;4.93;1.83;;;1.30;99.90;;;;;;4246092;27;20502;-78
2023/11/25 00:12:08;;;;;;;6.00;2.10;;;1.20;99.90;;;;;;4241081;27;20449;-78
2023/11/25 00:14:12;;;;;;;5.13;1.67;;;1.20;99.90;;;;;;4240608;27;20446;-77
2023/11/25 00:16:14;;;;;;;5.73;1.50;;;1.10;99.90;;;;;;4226961;27;20508;-78
2023/11/25 00:18:15;;;;;;;4.23;1.50;;;1.10;99.90;;;;;;4222666;27;20483;-78
2023/11/25 00:20:17;;;;;;;7.40;1.50;;;1.10;99.90;;;;;;4237637;27;20488;-78
2023/11/25 00:22:21;;;;;;;4.17;1.40;;;1.00;99.90;;;;;;4236747;27;20250;-78
2023/11/25 00:24:23;;;;;;;4.10;1.40;;;1.00;99.90;;;;;;4236854;27;20481;-78
2023/11/25 00:26:25;;;;;;;4.03;1.40;;;1.30;99.90;;;;;;4238976;27;21018;-79
2023/11/25 00:28:27;;;;;;;5.10;1.70;;;0.90;99.90;;;;;;4243280;27;20596;-78
2023/11/25 00:30:30;;;;;;;5.03;1.70;;;1.10;99.90;;;;;;4239257;27;20503;-79
2023/11/25 00:32:36;;;;;;;4.03;1.50;;;1.10;99.90;;;;;;4236504;27;20446;-78
2023/11/25 00:34:37;;;;;;;9.07;1.77;;;0.90;99.90;;;;;;4236831;27;21009;-80
2023/11/25 00:36:39;;;;;;;8.83;2.00;;;0.80;99.90;;;;;;4241197;27;20541;-77
2023/11/25 00:38:41;;;;;;;3.67;1.70;;;0.80;99.90;;;;;;4240550;27;20442;-77
2023/11/25 00:40:43;;;;;;;5.73;1.90;;;0.80;99.90;;;;;;4237843;27;21005;-77
2023/11/25 00:42:47;;;;;;;9.50;2.60;;;0.70;99.90;;;;;;4220705;28;20513;-77
2023/11/25 00:44:49;;;;;;;10.87;2.80;;;0.70;99.90;;;;;;4242318;27;20485;-77
2023/11/25 00:46:52;;;;;;;11.03;2.93;;;0.70;99.90;;;;;;4218695;28;20468;-80
2023/11/25 00:48:54;;;;;;;7.97;2.80;;;0.70;99.90;;;;;;4237472;27;20445;-78
2023/11/25 00:50:57;;;;;;;12.73;3.43;;;0.70;99.90;;;;;;4237189;27;21252;-78
2023/11/25 00:52:58;;;;;;;10.47;3.60;;;0.70;99.90;;;;;;4238631;27;20461;-79
2023/11/25 00:55:00;;;;;;;7.20;3.33;;;0.70;99.90;;;;;;4237283;27;20925;-77
2023/11/25 00:57:02;;;;;;;7.53;3.47;;;0.70;99.90;;;;;;4236140;27;20220;-78
2023/11/25 00:59:04;;;;;;;11.13;3.40;;;0.70;99.90;;;;;;4239455;27;20455;-78
2023/11/25 01:01:06;;;;;;;10.87;3.90;;;0.70;99.90;;;;;;4240779;27;20491;-79
2023/11/25 01:03:09;;;;;;;11.47;3.90;;;0.70;99.90;;;;;;4236408;27;20445;-77
2023/11/25 01:05:11;;;;;;;9.20;3.50;;;0.70;99.90;;;;;;4241370;27;20471;-80
2023/11/25 01:07:13;;;;;;;8.20;3.53;;;0.70;99.90;;;;;;4235763;27;20480;-80
2023/11/25 01:09:16;;;;;;;18.40;4.03;;;0.80;99.90;;;;;;4242784;27;20445;-79
2023/11/25 01:11:19;;;;;;;13.33;3.63;;;0.90;99.90;;;;;;4242244;27;20477;-78
2023/11/25 01:13:21;;;;;;;7.27;3.53;;;0.80;99.90;;;;;;4244395;27;20436;-79
2023/11/25 01:15:24;;;;;;;11.40;3.60;;;0.90;99.90;;;;;;4241700;27;20436;-79
2023/11/25 01:17:26;;;;;;;9.73;3.43;;;0.90;99.90;;;;;;4247087;27;20568;-79
2023/11/25 01:19:28;;;;;;;10.70;3.37;;;0.90;99.90;;;;;;4239507;27;20905;-80
2023/11/25 01:21:30;;;;;;;10.13;3.60;;;1.00;99.90;;;;;;4236391;27;20626;-80
2023/11/25 01:23:32;;;;;;;7.57;3.37;;;0.90;99.90;;;;;;4240064;27;20955;-81
2023/11/25 01:25:39;;;;;;;9.27;3.70;;;1.00;99.90;;;;;;4238591;27;21082;-78
2023/11/25 01:27:42;;;;;;;10.93;3.70;;;1.00;99.90;;;;;;4240072;27;20819;-80
2023/11/25 01:29:45;;;;;;;15.43;3.40;;;1.00;99.90;;;;;;4239791;27;20438;-78
2023/11/25 01:31:47;;;;;;;8.30;3.47;;;1.50;99.90;;;;;;4241031;27;20964;-78
2023/11/25 01:33:48;;;;;;;9.07;3.60;;;1.00;99.90;;;;;;4236068;27;20984;-77
2023/11/25 01:35:51;;;;;;;7.87;3.13;;;1.10;99.90;;;;;;4238555;27;20505;-77
2023/11/25 01:37:54;;;;;;;9.73;3.23;;;1.10;99.90;;;;;;4239026;27;20560;-77
2023/11/25 01:39:56;;;;;;;9.83;3.37;;;1.00;99.90;;;;;;4241754;27;20493;-78
2023/11/25 01:41:58;;;;;;;18.10;3.70;;;1.10;99.90;;;;;;4241644;27;21079;-77
2023/11/25 01:44:00;;;;;;;11.73;4.07;;;1.10;99.90;;;;;;4239489;27;20499;-79
2023/11/25 01:46:04;;;;;;;13.93;3.90;;;1.10;99.90;;;;;;4240710;27;20536;-77
2023/11/25 01:48:05;;;;;;;8.83;3.83;;;1.10;99.90;;;;;;4243053;27;20522;-77
2023/11/25 01:50:10;;;;;;;14.33;4.27;;;1.20;99.90;;;;;;4236979;27;20460;-76
2023/11/25 01:52:12;;;;;;;11.97;3.63;;;1.10;99.90;;;;;;4234148;27;20987;-76
2023/11/25 01:54:15;;;;;;;11.80;3.70;;;1.20;99.90;;;;;;4237207;27;20499;-76
2023/11/25 01:56:19;;;;;;;15.03;4.07;;;1.20;99.90;;;;;;4249909;27;20438;-78
2023/11/25 01:58:22;;;;;;;17.03;4.43;;;1.20;99.90;;;;;;4241685;27;20861;-77
2023/11/25 02:00:28;;;;;;;11.00;3.80;;;1.20;99.90;;;;;;4239748;27;20463;-77
2023/11/25 02:02:34;;;;;;;10.30;3.40;;;1.20;99.90;;;;;;4233768;27;20441;-77
2023/11/25 02:04:37;;;;;;;11.67;3.70;;;1.40;99.90;;;;;;4236780;27;20861;-77
2023/11/25 02:06:37;;;;;;;9.90;3.80;;;1.10;99.90;;;;;;4245572;27;20815;-78
2023/11/25 02:08:43;;;;;;;18.40;3.90;;;1.10;99.90;;;;;;4238466;27;20537;-78
2023/11/25 02:10:45;;;;;;;13.80;4.10;;;1.10;99.90;;;;;;4242688;27;20560;-78
2023/11/25 02:12:47;;;;;;;14.60;3.87;;;1.10;99.90;;;;;;4233784;27;20964;-77
2023/11/25 02:14:49;;;;;;;12.40;4.83;;;1.20;99.90;;;;;;4243513;27;20498;-77
2023/11/25 02:16:51;;;;;;;11.30;4.13;;;1.20;99.90;;;;;;4238837;27;20469;-77
2023/11/25 02:18:53;;;;;;;11.83;4.00;;;1.20;99.90;;;;;;4237993;27;20469;-77
2023/11/25 02:20:55;;;;;;;12.60;4.07;;;1.10;99.90;;;;;;4243176;27;20492;-77
2023/11/25 02:22:58;;;;;;;10.20;3.57;;;1.20;99.90;;;;;;4240277;27;20441;-77
2023/11/25 02:25:00;;;;;;;12.07;3.20;;;1.20;99.90;;;;;;4236770;27;20500;-78
2023/11/25 02:27:03;;;;;;;12.93;3.70;;;1.20;99.90;;;;;;4239923;27;20534;-77
2023/11/25 02:29:06;;;;;;;10.63;3.43;;;1.20;99.90;;;;;;4239116;27;20438;-77
2023/11/25 02:31:08;;;;;;;15.20;3.27;;;1.20;99.90;;;;;;4220608;27;20478;-77
2023/11/25 02:33:11;;;;;;;9.93;3.10;;;1.20;99.90;;;;;;4241966;27;22100;-77
2023/11/25 02:35:14;;;;;;;8.70;2.93;;;1.20;99.90;;;;;;4238569;27;20519;-78
2023/11/25 02:37:16;;;;;;;11.20;3.07;;;1.20;99.90;;;;;;4240087;27;20492;-77
2023/11/25 02:39:20;;;;;;;8.33;3.03;;;1.20;99.90;;;;;;4236629;27;20547;-78
2023/11/25 02:41:23;;;;;;;10.07;2.73;;;1.20;99.90;;;;;;4246920;27;20871;-77
2023/11/25 02:43:27;;;;;;;12.50;2.70;;;1.20;99.90;;;;;;4241938;27;20460;-77
2023/11/25 02:45:29;;;;;;;7.63;2.60;;;1.30;99.90;;;;;;4221235;27;20469;-78
2023/11/25 02:47:31;;;;;;;12.47;2.83;;;1.10;99.90;;;;;;4239672;27;20499;-77
2023/11/25 02:49:32;;;;;;;14.83;2.77;;;1.10;99.90;;;;;;4240766;27;20438;-77
2023/11/25 02:51:34;;;;;;;7.27;2.30;;;1.00;99.90;;;;;;4241783;27;20445;-78
2023/11/25 02:53:36;;;;;;;7.77;2.00;;;1.00;99.90;;;;;;4243283;27;20438;-78
2023/11/25 02:55:40;;;;;;;9.73;2.10;;;1.00;99.90;;;;;;4241203;27;20951;-77
2023/11/25 02:57:43;;;;;;;13.30;2.47;;;1.00;99.90;;;;;;4241441;27;20496;-77
2023/11/25 02:59:45;;;;;;;9.37;2.50;;;1.00;99.90;;;;;;4242835;27;20442;-77
2023/11/25 03:01:51;;;;;;;11.97;2.20;;;0.90;99.90;;;;;;4245295;27;20491;-77
2023/11/25 03:03:53;;;;;;;9.33;2.10;;;1.00;99.90;;;;;;4231296;27;20448;-77
2023/11/25 03:05:54;;;;;;;5.70;2.17;;;0.80;99.90;;;;;;4236822;27;20987;-77
2023/11/25 03:07:57;;;;;;;10.33;2.30;;;0.80;99.90;;;;;;4236562;27;20465;-78
2023/11/25 03:09:58;;;;;;;9.20;2.57;;;0.80;99.90;;;;;;4235821;28;20459;-78
2023/11/25 03:12:02;;;;;;;9.33;2.27;;;0.70;99.90;;;;;;4238780;27;20456;-79
2023/11/25 03:14:04;;;;;;;6.77;2.10;;;0.70;99.90;;;;;;4234980;28;20448;-78
2023/11/25 03:16:06;;;;;;;7.83;2.60;;;0.70;99.90;;;;;;4234758;27;20449;-79
2023/11/25 03:18:09;;;;;;;6.73;2.20;;;0.70;99.90;;;;;;4235999;27;20471;-81
2023/11/25 03:20:11;;;;;;;9.33;2.20;;;0.70;99.90;;;;;;4239141;27;20543;-79
2023/11/25 03:22:13;;;;;;;7.37;2.03;;;0.70;99.90;;;;;;4240748;27;20518;-79
2023/11/25 03:24:16;;;;;;;14.33;2.67;;;0.70;99.90;;;;;;4241275;27;20468;-80
2023/11/25 03:26:18;;;;;;;8.20;2.53;;;0.60;99.90;;;;;;4240535;27;20527;-80
2023/11/25 03:28:22;;;;;;;4.47;2.07;;;0.60;99.90;;;;;;4241288;27;20462;-79
2023/11/25 03:30:24;;;;;;;12.73;2.30;;;0.60;99.90;;;;;;4239557;27;20457;-80
2023/11/25 03:32:26;;;;;;;8.90;2.00;;;0.70;99.90;;;;;;4238574;27;20515;-79
2023/11/25 03:34:28;;;;;;;11.50;2.33;;;0.60;99.90;;;;;;4242979;27;20468;-79
2023/11/25 03:36:30;;;;;;;12.07;2.50;;;0.70;99.90;;;;;;4241056;27;20797;-79
2023/11/25 03:38:32;;;;;;;15.47;2.43;;;1.10;99.90;;;;;;4239862;27;20479;-80
2023/11/25 03:40:33;;;;;;;9.13;2.33;;;0.70;99.90;;;;;;4242544;27;20455;-81
2023/11/25 03:42:35;;;;;;;7.43;1.87;;;0.70;99.90;;;;;;4238235;27;20529;-78
2023/11/25 03:44:39;;;;;;;7.50;2.10;;;1.00;99.90;;;;;;4239467;27;20249;-78
2023/11/25 03:46:41;;;;;;;8.73;2.10;;;0.70;99.90;;;;;;4243476;27;20445;-79
2023/11/25 03:48:43;;;;;;;5.97;2.10;;;0.60;99.90;;;;;;4236059;27;20473;-79
2023/11/25 03:50:45;;;;;;;5.17;2.13;;;0.90;99.90;;;;;;4235492;27;20506;-80
2023/11/25 03:52:47;;;;;;;8.03;2.20;;;0.70;99.90;;;;;;4239461;27;20445;-80
2023/11/25 03:54:49;;;;;;;7.43;2.30;;;1.00;99.90;;;;;;4241170;27;20452;-78
2023/11/25 03:56:51;;;;;;;3.83;1.73;;;0.60;99.90;;;;;;4241865;27;20521;-79
2023/11/25 03:58:54;;;;;;;11.93;2.03;;;0.70;99.90;;;;;;4236507;27;20436;-77
2023/11/25 04:00:57;;;;;;;8.00;2.13;;;0.60;99.90;;;;;;4237734;27;20533;-77
2023/11/25 04:02:58;;;;;;;15.90;2.33;;;0.60;99.90;;;;;;4236614;27;20474;-78
2023/11/25 04:05:06;;;;;;;7.03;2.00;;;1.40;99.90;;;;;;4246135;27;20519;-79
2023/11/25 04:07:08;;;;;;;7.13;2.40;;;0.60;99.90;;;;;;4242780;27;20487;-79
2023/11/25 04:09:10;;;;;;;12.27;2.23;;;1.30;99.90;;;;;;4245228;27;21442;-78
2023/11/25 04:11:12;;;;;;;7.33;2.43;;;0.50;99.90;;;;;;4240551;27;20872;-78
2023/11/25 04:13:15;;;;;;;9.93;1.70;;;0.50;99.90;;;;;;4241490;27;21328;-78
2023/11/25 04:15:19;;;;;;;7.60;2.10;;;0.50;99.90;;;;;;4239655;27;20444;-77
2023/11/25 04:17:22;;;;;;;6.83;2.17;;;0.50;99.90;;;;;;4239078;27;20575;-77
2023/11/25 04:19:24;;;;;;;5.90;1.87;;;0.50;99.90;;;;;;4237172;27;20446;-79
2023/11/25 04:21:26;;;;;;;5.50;1.77;;;0.50;99.90;;;;;;4237450;27;20954;-77
2023/11/25 04:23:30;;;;;;;8.43;1.93;;;0.50;99.90;;;;;;4238011;27;21045;-77
2023/11/25 04:25:32;;;;;;;7.33;1.83;;;0.50;99.90;;;;;;4241312;27;20823;-80
2023/11/25 04:27:34;;;;;;;11.93;2.07;;;1.30;99.90;;;;;;4243634;27;20463;-80
2023/11/25 04:29:36;;;;;;;6.73;1.70;;;0.50;99.90;;;;;;4240053;27;20606;-79
2023/11/25 04:31:39;;;;;;;7.43;1.63;;;0.40;99.90;;;;;;4238153;27;20990;-79
2023/11/25 04:33:42;;;;;;;9.77;1.70;;;0.40;99.90;;;;;;4237696;27;20903;-78
2023/11/25 04:35:44;;;;;;;8.17;1.97;;;0.70;99.90;;;;;;4237684;27;20449;-79
2023/11/25 04:37:47;;;;;;;9.17;1.87;;;0.40;99.90;;;;;;4237963;27;20502;-80
2023/11/25 04:39:48;;;;;;;10.07;1.40;;;0.40;99.90;;;;;;4225329;28;21043;-80
2023/11/25 04:41:50;;;;;;;9.27;1.77;;;0.40;99.90;;;;;;4239692;27;20463;-79
2023/11/25 04:43:51;;;;;;;9.30;1.50;;;0.40;99.90;;;;;;4238230;27;20204;-80
2023/11/25 04:45:53;;;;;;;3.57;1.63;;;0.30;99.90;;;;;;4240365;27;20471;-79
2023/11/25 04:47:55;;;;;;;7.40;2.10;;;0.30;99.90;;;;;;4237563;27;20468;-80
2023/11/25 04:49:57;;;;;;;6.17;1.53;;;0.60;99.90;;;;;;4222964;28;20999;-82
2023/11/25 04:51:59;;;;;;;4.67;1.60;;;0.30;99.90;;;;;;4236153;27;20459;-80
2023/11/25 04:54:01;;;;;;;6.83;1.43;;;0.80;99.90;;;;;;4237608;27;20862;-79
2023/11/25 04:56:04;;;;;;;7.37;1.50;;;0.30;99.90;;;;;;4221783;27;20890;-79
2023/11/25 04:58:05;;;;;;;10.10;1.70;;;0.20;99.90;;;;;;4240978;27;20514;-81
2023/11/25 05:00:10;;;;;;;8.83;1.70;;;0.30;99.90;;;;;;4237893;27;20979;-80
2023/11/25 05:02:13;;;;;;;6.43;1.27;;;0.30;99.90;;;;;;4239867;27;20444;-80
2023/11/25 05:04:15;;;;;;;4.43;1.30;;;0.30;99.90;;;;;;4238296;27;20448;-79
2023/11/25 05:06:19;;;;;;;9.33;1.50;;;0.30;99.90;;;;;;4239315;27;20529;-78
2023/11/25 05:08:21;;;;;;;5.53;1.40;;;0.30;99.90;;;;;;4236064;27;20546;-78
2023/11/25 05:10:23;;;;;;;8.07;1.70;;;0.20;99.90;;;;;;4235227;27;20510;-81
2023/11/25 05:12:25;;;;;;;10.97;1.37;;;0.20;99.90;;;;;;4243760;27;20500;-79
2023/11/25 05:14:27;;;;;;;5.40;1.50;;;0.20;99.90;;;;;;4241270;27;20436;-79
2023/11/25 05:16:29;;;;;;;7.97;2.17;;;0.20;99.90;;;;;;4235386;27;21176;-78
2023/11/25 05:18:31;;;;;;;11.57;1.53;;;0.20;99.90;;;;;;4241792;27;20464;-78
2023/11/25 05:20:34;;;;;;;7.43;1.40;;;0.10;99.90;;;;;;4236817;27;20444;-79
2023/11/25 05:22:37;;;;;;;9.63;1.33;;;0.10;99.90;;;;;;4240390;27;21150;-79
2023/11/25 05:24:39;;;;;;;5.90;1.30;;;0.10;99.90;;;;;;4240437;27;20439;-79
2023/11/25 05:26:41;;;;;;;10.83;1.20;;;0.10;99.90;;;;;;4239645;27;20904;-78
2023/11/25 05:28:43;;;;;;;6.47;1.40;;;0.00;99.90;;;;;;4238484;27;21889;-77
2023/11/25 05:30:47;;;;;;;4.73;1.43;;;0.00;99.90;;;;;;4237534;27;20448;-77
2023/11/25 05:32:48;;;;;;;8.63;1.23;;;0.00;99.90;;;;;;4238280;27;20477;-80
2023/11/25 05:34:50;;;;;;;5.33;1.23;;;0.00;99.90;;;;;;4220329;28;20492;-78
2023/11/25 05:36:52;;;;;;;5.57;1.30;;;0.00;99.90;;;;;;4239672;27;20839;-77
2023/11/25 05:38:56;;;;;;;10.20;1.30;;;0.00;99.90;;;;;;4220523;28;20504;-78
2023/11/25 05:40:58;;;;;;;7.87;1.23;;;-0.10;99.90;;;;;;4240897;27;20440;-77
2023/11/25 05:43:01;;;;;;;6.07;1.70;;;-0.10;99.90;;;;;;4243137;27;20480;-79
2023/11/25 05:45:04;;;;;;;8.53;1.53;;;-0.10;99.90;;;;;;4236390;27;20528;-80
2023/11/25 05:47:06;;;;;;;7.10;1.10;;;-0.20;99.90;;;;;;4237446;27;20500;-79
2023/11/25 05:49:09;;;;;;;4.23;1.40;;;-0.20;99.90;;;;;;4238672;27;20456;-78
2023/11/25 05:51:10;;;;;;;7.90;1.60;;;-0.20;99.90;;;;;;4220699;28;20857;-78
2023/11/25 05:53:13;;;;;;;5.00;1.30;;;-0.20;99.90;;;;;;4243628;27;20446;-80
2023/11/25 05:55:15;;;;;;;11.10;2.27;;;-0.20;99.90;;;;;;4238205;27;20857;-79
2023/11/25 05:57:17;;;;;;;7.70;1.87;;;-0.30;99.90;;;;;;4234513;27;20476;-79
2023/11/25 05:59:19;;;;;;;8.70;2.30;;;-0.30;99.90;;;;;;4229528;28;20461;-81
2023/11/25 06:01:21;;;;;;;14.57;2.43;;;-0.30;99.90;;;;;;4238281;27;20441;-79
2023/11/25 06:03:24;;;;;;;8.73;1.87;;;-0.30;99.90;;;;;;4244662;27;20450;-78
2023/11/25 06:05:27;;;;;;;12.70;2.23;;;0.00;99.90;;;;;;4236335;27;20436;-78
2023/11/25 06:07:28;;;;;;;6.57;2.13;;;0.70;99.90;;;;;;4235385;27;20488;-78
2023/11/25 06:09:31;;;;;;;16.00;4.27;;;-0.40;99.90;;;;;;4240272;27;20544;-80
2023/11/25 06:11:34;;;;;;;14.13;4.10;;;-0.40;99.90;;;;;;4234962;27;20219;-79
2023/11/25 06:13:36;;;;;;;11.97;3.60;;;-0.30;99.90;;;;;;4238023;27;20456;-79
2023/11/25 06:15:38;;;;;;;15.10;4.87;;;-0.40;99.90;;;;;;4237274;27;20452;-78
2023/11/25 06:17:39;;;;;;;14.83;5.00;;;-0.20;99.90;;;;;;4235419;27;20993;-78
2023/11/25 06:19:43;;;;;;;28.47;9.83;;;-0.40;99.90;;;;;;4226044;28;20573;-78
2023/11/25 06:21:45;;;;;;;14.40;4.73;;;-0.40;99.90;;;;;;4238448;27;20460;-78
2023/11/25 06:23:48;;;;;;;22.20;6.20;;;-0.40;99.90;;;;;;4234810;27;20449;-79
2023/11/25 06:25:50;;;;;;;15.67;5.67;;;-0.10;99.90;;;;;;4235445;27;20479;-79
2023/11/25 06:27:54;;;;;;;11.30;4.10;;;-0.40;99.90;;;;;;4241202;27;20485;-78
2023/11/25 06:29:56;;;;;;;14.80;5.07;;;-0.40;99.90;;;;;;4245872;27;20460;-77
2023/11/25 06:31:57;;;;;;;17.43;5.03;;;-0.40;99.90;;;;;;4223847;28;20876;-78
2023/11/25 06:34:00;;;;;;;12.67;2.77;;;-0.40;99.90;;;;;;4238862;27;20474;-76
2023/11/25 06:36:02;;;;;;;10.23;2.30;;;-0.40;99.90;;;;;;4234138;27;20579;-78
2023/11/25 06:38:05;;;;;;;9.80;2.80;;;-0.30;99.90;;;;;;4236740;27;20534;-78
2023/11/25 06:40:12;;;;;;;5.83;2.83;;;-0.30;99.90;;;;;;4225963;27;20457;-78
2023/11/25 06:42:13;;;;;;;12.40;3.17;;;-0.40;99.90;;;;;;4241002;27;20531;-77
2023/11/25 06:44:17;;;;;;;7.37;2.43;;;-0.30;99.90;;;;;;4239868;27;20431;-79
2023/11/25 06:46:22;;;;;;;7.83;2.17;;;-0.30;99.90;;;;;;4239266;27;20481;-79
2023/11/25 06:48:24;;;;;;;10.87;2.53;;;-0.30;99.90;;;;;;4234044;27;20453;-79
2023/11/25 06:50:28;;;;;;;17.67;3.20;;;-0.20;99.90;;;;;;4238095;27;20986;-78
2023/11/25 06:52:30;;;;;;;10.17;3.23;;;-0.20;99.90;;;;;;4233252;27;20820;-79
2023/11/25 06:54:32;;;;;;;18.17;2.77;;;-0.20;99.90;;;;;;4235735;27;20502;-78
2023/11/25 06:56:34;;;;;;;13.20;3.17;;;-0.20;99.90;;;;;;4237618;27;20439;-80
2023/11/25 06:58:37;;;;;;;9.53;2.73;;;-0.20;99.90;;;;;;4238667;27;21168;-80
2023/11/25 07:00:40;;;;;;;7.30;1.83;;;-0.20;99.90;;;;;;4237854;27;20969;-80
2023/11/25 07:02:42;;;;;;;7.80;1.60;;;-0.10;99.90;;;;;;4225286;28;20448;-77
2023/11/25 07:04:44;;;;;;;12.03;2.90;;;-0.10;99.90;;;;;;4237423;27;20448;-78
2023/11/25 07:06:45;;;;;;;11.77;3.27;;;0.00;99.90;;;;;;4241563;27;20546;-78
2023/11/25 07:08:47;;;;;;;6.20;1.87;;;0.00;99.90;;;;;;4237305;27;20542;-80
2023/11/25 07:10:53;;;;;;;13.87;3.40;;;0.10;99.90;;;;;;4238423;27;20450;-79
2023/11/25 07:12:55;;;;;;;9.90;2.70;;;0.50;99.90;;;;;;4243604;27;20501;-79
2023/11/25 07:14:58;;;;;;;8.70;2.40;;;0.00;99.90;;;;;;4239046;27;20955;-77
2023/11/25 07:17:01;;;;;;;9.00;3.00;;;0.00;99.90;;;;;;4243112;27;20916;-78
2023/11/25 07:19:08;;;;;;;22.93;5.50;;;1.10;99.90;;;;;;4235305;27;20444;-78
2023/11/25 07:21:12;;;;;;;11.60;2.43;;;0.10;99.90;;;;;;4235997;28;20557;-77
2023/11/25 07:23:14;;;;;;;8.83;2.00;;;0.10;99.90;;;;;;4245975;27;20455;-78
2023/11/25 07:25:18;;;;;;;6.67;2.00;;;0.10;99.90;;;;;;4239731;28;20498;-79
2023/11/25 07:27:20;;;;;;;10.70;3.50;;;0.20;99.90;;;;;;4241636;27;20853;-77
2023/11/25 07:29:28;;;;;;;5.93;1.83;;;0.20;99.90;;;;;;4229291;28;20519;-77
2023/11/25 07:31:31;;;;;;;13.33;1.90;;;0.30;99.90;;;;;;4239591;27;20444;-78
2023/11/25 07:33:34;;;;;;;12.87;3.40;;;0.30;99.90;;;;;;4239566;27;20440;-79
2023/11/25 07:35:36;;;;;;;12.63;2.70;;;0.30;99.90;;;;;;4236353;28;20446;-78
2023/11/25 07:37:39;;;;;;;13.57;3.43;;;0.30;99.90;;;;;;4235535;28;20472;-78
2023/11/25 07:39:40;;;;;;;8.93;2.13;;;0.40;99.90;;;;;;4229812;28;20523;-79
2023/11/25 07:41:44;;;;;;;5.63;1.20;;;0.40;99.90;;;;;;4219044;28;20552;-79
2023/11/25 07:43:46;;;;;;;7.63;2.00;;;0.40;99.90;;;;;;4238717;28;20632;-79
2023/11/25 07:45:48;;;;;;;9.00;2.50;;;0.40;99.90;;;;;;4232301;27;20459;-80
2023/11/25 07:47:50;;;;;;;9.73;2.27;;;0.70;99.90;;;;;;4242709;27;20976;-78
2023/11/25 07:49:53;;;;;;;6.20;1.57;;;0.50;99.90;;;;;;4234953;28;20449;-79
2023/11/25 07:51:54;;;;;;;14.73;2.73;;;0.50;99.90;;;;;;4235309;28;20453;-78
2023/11/25 07:53:57;;;;;;;13.27;3.70;;;1.40;99.90;;;;;;4236595;27;20464;-80
2023/11/25 07:56:01;;;;;;;9.00;2.47;;;0.50;99.90;;;;;;4236587;28;20215;-76
2023/11/25 07:58:03;;;;;;;10.03;2.33;;;0.60;99.90;;;;;;4235756;28;20944;-77
2023/11/25 08:00:06;;;;;;;9.93;2.33;;;0.60;99.90;;;;;;4232764;28;20531;-78
2023/11/25 08:02:09;;;;;;;15.67;2.47;;;0.60;99.90;;;;;;4237805;27;20440;-80
2023/11/25 08:04:11;;;;;;;7.80;2.00;;;0.60;99.90;;;;;;4241656;27;21036;-78
2023/11/25 08:06:16;;;;;;;9.00;1.83;;;0.70;99.90;;;;;;4249018;27;20783;-79
2023/11/25 08:08:18;;;;;;;8.73;2.83;;;0.70;99.90;;;;;;4239182;27;20470;-77
2023/11/25 08:10:20;;;;;;;7.57;2.87;;;0.70;99.90;;;;;;4239116;27;20442;-78
2023/11/25 08:12:21;;;;;;;11.60;2.93;;;0.70;99.90;;;;;;4244896;27;20448;-77
2023/11/25 08:14:22;;;;;;;9.97;2.60;;;0.70;99.90;;;;;;4243669;27;20453;-76
2023/11/25 08:16:24;;;;;;;9.63;2.33;;;0.80;99.90;;;;;;4220907;28;20432;-78
2023/11/25 08:18:25;;;;;;;11.60;2.43;;;0.80;99.90;;;;;;4241520;27;20234;-77
2023/11/25 08:20:27;;;;;;;11.60;2.07;;;0.80;99.90;;;;;;4240844;27;20947;-79
2023/11/25 08:22:31;;;;;;;8.83;2.43;;;0.80;99.90;;;;;;4242284;27;20261;-80
2023/11/25 08:24:34;;;;;;;11.47;2.23;;;0.80;99.90;;;;;;4239067;27;20456;-80
2023/11/25 08:26:37;;;;;;;11.57;3.10;;;0.90;99.90;;;;;;4244685;27;20485;-77
2023/11/25 08:28:39;;;;;;;6.73;2.30;;;0.90;99.90;;;;;;4241124;27;21138;-81
2023/11/25 08:30:41;;;;;;;5.13;1.70;;;1.00;99.90;;;;;;4241930;27;20445;-76
2023/11/25 08:32:43;;;;;;;10.10;1.83;;;1.00;99.90;;;;;;4242017;27;20437;-76
2023/11/25 08:34:46;;;;;;;10.23;1.70;;;1.00;99.90;;;;;;4238576;27;20445;-83
2023/11/25 08:36:53;;;;;;;4.73;1.67;;;1.10;99.90;;;;;;4238995;27;21023;-81
2023/11/25 08:38:58;;;;;;;6.77;2.03;;;1.10;99.90;;;;;;4237316;27;20441;-78
2023/11/25 08:41:00;;;;;;;8.47;1.77;;;1.10;99.90;;;;;;4238850;27;21162;-76
2023/11/25 08:43:08;;;;;;;8.10;1.47;;;1.20;99.90;;;;;;4241182;27;20433;-75
2023/11/25 08:45:11;;;;;;;7.80;1.70;;;1.20;99.90;;;;;;4242449;27;20433;-75
2023/11/25 08:47:13;;;;;;;3.57;1.57;;;1.20;99.90;;;;;;4238103;27;20492;-79
2023/11/25 08:49:21;;;;;;;7.07;2.50;;;1.30;99.90;;;;;;4236981;27;20441;-76
2023/11/25 08:51:24;;;;;;;7.03;1.47;;;1.30;99.90;;;;;;4217648;28;20446;-77
2023/11/25 08:53:27;;;;;;;9.30;2.00;;;1.40;99.90;;;;;;4244089;27;20461;-82
2023/11/25 08:55:30;;;;;;;14.33;3.10;;;1.50;99.90;;;;;;4219663;27;20443;-79
2023/11/25 08:57:32;;;;;;;14.30;3.53;;;1.50;99.90;;;;;;4240211;27;20468;-77
2023/11/25 08:59:34;;;;;;;11.27;3.90;;;1.50;99.90;;;;;;4237887;27;20442;-81
2023/11/25 09:01:39;;;;;;;7.23;2.27;;;1.60;99.90;;;;;;4235356;27;20445;-76
2023/11/25 09:03:41;;;;;;;4.93;1.73;;;1.70;99.90;;;;;;4235474;27;20990;-78
2023/11/25 09:05:47;;;;;;;9.30;2.20;;;1.70;99.90;;;;;;4243677;27;20508;-77
2023/11/25 09:07:50;;;;;;;6.53;2.03;;;1.70;99.90;;;;;;4239072;27;20484;-77
2023/11/25 09:09:52;;;;;;;12.73;2.40;;;1.80;99.90;;;;;;4242381;27;20896;-77
2023/11/25 09:11:57;;;;;;;12.90;2.80;;;1.80;99.90;;;;;;4236888;27;20453;-78
2023/11/25 09:14:00;;;;;;;14.70;4.10;;;1.80;99.90;;;;;;4250396;27;20440;-76
2023/11/25 09:16:03;;;;;;;14.27;3.03;;;1.80;99.90;;;;;;4249368;27;20492;-78
2023/11/25 09:18:06;;;;;;;13.43;3.87;;;1.90;99.90;;;;;;4251405;27;20521;-78
2023/11/25 09:20:11;;;;;;;13.57;5.27;;;1.90;99.90;;;;;;4247922;27;20462;-74
2023/11/25 09:22:12;;;;;;;18.33;6.37;;;2.00;99.90;;;;;;4243211;27;20541;-76
2023/11/25 09:24:15;;;;;;;20.07;6.50;;;2.00;99.90;;;;;;4248341;27;20511;-74
2023/11/25 09:26:16;;;;;;;13.07;5.10;;;2.00;99.90;;;;;;4243399;27;20764;-79
2023/11/25 09:28:20;;;;;;;7.60;2.37;;;2.00;99.90;;;;;;4239546;27;20541;-80
2023/11/25 09:30:23;;;;;;;11.40;3.10;;;2.00;99.90;;;;;;4241866;27;20441;-78
2023/11/25 09:32:27;;;;;;;7.50;2.13;;;2.10;99.90;;;;;;4243145;27;20436;-76
2023/11/25 09:34:28;;;;;;;11.63;2.60;;;2.10;99.90;;;;;;4237457;27;20458;-76
2023/11/25 09:36:30;;;;;;;15.80;3.40;;;2.10;99.90;;;;;;4237394;27;20885;-77
2023/11/25 09:38:35;;;;;;;11.00;3.27;;;2.10;99.90;;;;;;4237824;27;20775;-79
2023/11/25 09:40:39;;;;;;;9.50;2.10;;;2.10;99.90;;;;;;4243204;27;20782;-78
2023/11/25 09:42:41;;;;;;;7.10;2.33;;;2.10;99.90;;;;;;4242635;27;20442;-80
2023/11/25 09:44:45;;;;;;;10.93;2.60;;;2.20;99.90;;;;;;4239773;27;20438;-79
2023/11/25 09:46:49;;;;;;;10.33;2.23;;;2.30;99.90;;;;;;4237581;27;20462;-78
2023/11/25 09:48:50;;;;;;;15.70;2.80;;;2.10;99.90;;;;;;4233855;27;20453;-75
2023/11/25 09:50:54;;;;;;;11.27;2.70;;;2.10;99.90;;;;;;4238836;27;20441;-77
2023/11/25 09:53:00;;;;;;;10.20;4.30;;;2.10;99.90;;;;;;4237655;27;20491;-79
2023/11/25 09:55:03;;;;;;;8.73;2.50;;;2.10;99.90;;;;;;4241787;27;20461;-79
2023/11/25 09:57:07;;;;;;;8.77;2.53;;;2.10;99.90;;;;;;4241364;27;20515;-79
2023/11/25 09:59:09;;;;;;;5.93;2.30;;;2.00;99.90;;;;;;4243858;27;20429;-78
2023/11/25 10:01:13;;;;;;;13.90;3.37;;;2.00;99.90;;;;;;4236853;27;20446;-76
2023/11/25 10:03:16;;;;;;;8.23;2.77;;;1.90;99.90;;;;;;4233175;27;20446;-76
2023/11/25 10:05:20;;;;;;;15.73;3.00;;;1.90;99.90;;;;;;4234796;27;21197;-74
2023/11/25 10:07:23;;;;;;;10.83;3.07;;;1.90;99.90;;;;;;4235980;27;21134;-74
2023/11/25 10:09:25;;;;;;;11.83;4.50;;;1.90;99.90;;;;;;4237147;27;20827;-76
2023/11/25 10:11:30;;;;;;;10.90;3.70;;;1.90;99.90;;;;;;4240738;27;20446;-75
2023/11/25 10:13:33;;;;;;;14.23;3.97;;;1.80;99.90;;;;;;4238269;27;20936;-75
2023/11/25 10:15:46;;;;;;;17.03;3.77;;;1.80;99.90;;;;;;4237157;27;20896;-74
2023/11/25 10:17:49;;;;;;;12.87;4.47;;;1.80;99.90;;;;;;4247359;27;20453;-74
2023/11/25 10:20:09;;;;;;;16.40;3.43;;;1.70;99.90;;;;;;4242181;27;20510;-73
2023/11/25 10:22:11;;;;;;;12.27;4.20;;;1.70;99.90;;;;;;4240224;27;20457;-74
2023/11/25 10:24:17;;;;;;;16.87;3.97;;;1.70;99.90;;;;;;4238270;27;20847;-74
2023/11/25 10:26:19;;;;;;;11.97;3.60;;;1.70;99.90;;;;;;4235298;27;20441;-75
2023/11/25 10:28:27;;;;;;;10.30;3.37;;;1.70;99.90;;;;;;4232610;27;20474;-76
2023/11/25 10:30:30;;;;;;;7.33;3.23;;;1.90;99.90;;;;;;4239578;27;20476;-76
2023/11/25 10:32:33;;;;;;;12.90;3.50;;;2.00;99.90;;;;;;4241301;27;20498;-76
2023/11/25 10:34:36;;;;;;;14.73;4.80;;;1.60;99.90;;;;;;4241361;27;20466;-76
2023/11/25 10:36:39;;;;;;;10.70;3.77;;;1.70;99.90;;;;;;4228124;27;20458;-75
2023/11/25 10:38:42;;;;;;;18.07;5.17;;;1.60;99.90;;;;;;4241826;27;20492;-75
2023/11/25 10:40:43;;;;;;;11.77;3.20;;;1.60;99.90;;;;;;4238337;27;20497;-75
2023/11/25 10:42:46;;;;;;;14.87;3.73;;;1.50;99.90;;;;;;4239880;27;20445;-76